createdAt,value
2017-10-08T00:02:24.225Z,12.34
2017-10-08T00:04:51.866Z,12.37
2017-10-08T00:07:19.474Z,12.37
2017-10-08T00:09:47.089Z,12.38
2017-10-08T00:12:14.711Z,12.36
2017-10-08T00:14:42.403Z,12.35
2017-10-08T00:17:10.008Z,12.38
2017-10-08T00:19:37.742Z,12.39
2017-10-08T00:22:05.342Z,12.39
2017-10-08T00:24:33.006Z,12.41
2017-10-08T00:27:00.610Z,12.41
2017-10-08T00:29:28.278Z,12.42
2017-10-08T00:31:55.910Z,12.42
2017-10-08T00:34:23.550Z,12.41
2017-10-08T00:36:51.260Z,12.42
2017-10-08T00:39:18.885Z,12.41
2017-10-08T00:41:46.533Z,12.41
2017-10-08T00:44:14.134Z,12.41
2017-10-08T00:46:41.758Z,12.45
2017-10-08T00:49:09.349Z,12.42
2017-10-08T00:51:36.992Z,12.41
2017-10-08T00:54:04.615Z,12.43
2017-10-08T00:56:32.253Z,12.44
2017-10-08T00:58:59.846Z,12.43
2017-10-08T01:01:27.459Z,12.43
2017-10-08T01:03:55.063Z,12.47
2017-10-08T01:06:22.707Z,12.44
2017-10-08T01:08:50.324Z,12.46
2017-10-08T01:11:17.962Z,12.48
2017-10-08T01:13:45.582Z,12.48
2017-10-08T01:16:13.225Z,12.47
2017-10-08T01:18:40.827Z,12.50
2017-10-08T01:21:08.425Z,12.53
2017-10-08T01:23:36.057Z,12.54
2017-10-08T01:26:03.675Z,12.55
2017-10-08T01:28:31.254Z,12.55
2017-10-08T01:30:58.934Z,12.55
2017-10-08T01:33:26.523Z,12.59
2017-10-08T01:35:54.169Z,12.65
2017-10-08T01:38:21.766Z,12.62
2017-10-08T01:40:49.472Z,12.63
2017-10-08T01:43:17.066Z,12.62
2017-10-08T01:45:44.697Z,12.67
2017-10-08T01:48:12.302Z,12.70
2017-10-08T01:50:39.927Z,12.67
2017-10-08T01:53:07.558Z,12.68
2017-10-08T01:55:35.270Z,12.72
2017-10-08T01:58:02.897Z,12.70
2017-10-08T02:00:30.519Z,12.71
2017-10-08T02:02:58.171Z,12.74
2017-10-08T02:05:25.989Z,12.75
2017-10-08T02:07:53.627Z,12.75
2017-10-08T02:10:21.250Z,12.77
2017-10-08T02:12:49.683Z,12.78
2017-10-08T02:15:17.331Z,12.82
2017-10-08T02:17:44.997Z,12.82
2017-10-08T02:20:12.617Z,12.82
2017-10-08T02:22:40.275Z,12.84
2017-10-08T02:25:07.880Z,12.85
2017-10-08T02:27:35.535Z,12.82
2017-10-08T02:30:03.163Z,12.81
2017-10-08T02:32:30.809Z,12.81
2017-10-08T02:34:58.430Z,12.82
2017-10-08T02:37:26.098Z,12.82
2017-10-08T02:39:53.704Z,12.81
2017-10-08T02:42:21.400Z,12.80
2017-10-08T02:44:49.010Z,12.80
2017-10-08T02:47:16.636Z,12.82
2017-10-08T02:49:44.252Z,12.83
2017-10-08T02:52:11.987Z,12.84
2017-10-08T02:54:39.614Z,12.82
2017-10-08T02:57:07.446Z,12.85
2017-10-08T02:59:35.067Z,12.86
2017-10-08T03:02:02.703Z,12.86
2017-10-08T03:04:30.382Z,12.84
2017-10-08T03:06:58.038Z,12.84
2017-10-08T03:09:25.707Z,12.90
2017-10-08T03:11:53.337Z,12.89
2017-10-08T03:14:21.033Z,12.90
2017-10-08T03:16:48.775Z,12.89
2017-10-08T03:19:16.385Z,12.90
2017-10-08T03:21:44.022Z,12.88
2017-10-08T03:24:11.669Z,12.88
2017-10-08T03:26:39.308Z,12.88
2017-10-08T03:29:06.944Z,12.90
2017-10-08T03:31:34.549Z,12.91
2017-10-08T03:34:02.218Z,12.90
2017-10-08T03:36:29.883Z,12.90
2017-10-08T03:38:57.481Z,12.90
2017-10-08T03:41:25.223Z,12.92
2017-10-08T03:43:52.858Z,12.93
2017-10-08T03:46:20.461Z,12.92
2017-10-08T03:48:48.114Z,12.91
2017-10-08T03:51:15.742Z,12.91
2017-10-08T03:53:43.397Z,12.90
2017-10-08T03:56:11.009Z,12.86
2017-10-08T03:58:38.650Z,12.87
2017-10-08T04:01:06.305Z,12.91
2017-10-08T04:03:33.991Z,12.90
2017-10-08T04:06:01.616Z,12.90
2017-10-08T04:08:29.258Z,12.89
2017-10-08T04:10:56.880Z,12.90
2017-10-08T04:13:24.628Z,12.92
2017-10-08T04:15:52.242Z,12.94
2017-10-08T04:18:19.886Z,12.95
2017-10-08T04:20:47.494Z,12.96
2017-10-08T04:23:15.159Z,12.98
2017-10-08T04:25:42.767Z,12.99
2017-10-08T04:28:10.407Z,12.98
2017-10-08T04:30:38.019Z,13.02
2017-10-08T04:33:05.698Z,13.03
2017-10-08T04:35:33.338Z,13.06
2017-10-08T04:38:01.009Z,13.05
2017-10-08T04:40:28.621Z,13.01
2017-10-08T04:42:56.276Z,13.02
2017-10-08T04:45:23.881Z,13.04
2017-10-08T04:47:51.538Z,13.02
2017-10-08T04:50:19.151Z,13.03
2017-10-08T04:52:46.850Z,13.03
2017-10-08T04:55:14.446Z,13.05
2017-10-08T04:57:42.072Z,13.02
2017-10-08T05:00:09.681Z,13.01
2017-10-08T05:02:37.311Z,13.06
2017-10-08T05:05:04.931Z,13.04
2017-10-08T05:07:32.590Z,13.02
2017-10-08T05:10:00.190Z,13.03
2017-10-08T05:12:28.377Z,13.00
2017-10-08T05:14:56.034Z,13.00
2017-10-08T05:17:23.683Z,13.01
2017-10-08T05:19:51.286Z,13.00
2017-10-08T05:22:18.991Z,12.99
2017-10-08T05:24:46.626Z,12.98
2017-10-08T05:27:14.340Z,12.98
2017-10-08T05:29:41.966Z,13.01
2017-10-08T05:32:09.586Z,13.00
2017-10-08T05:34:37.230Z,13.04
2017-10-08T05:37:04.856Z,13.04
2017-10-08T05:39:32.566Z,13.05
2017-10-08T05:42:00.217Z,13.05
2017-10-08T05:44:27.858Z,13.06
2017-10-08T05:46:55.516Z,13.07
2017-10-08T05:49:23.164Z,13.08
2017-10-08T05:51:50.787Z,13.08
2017-10-08T05:54:18.443Z,13.10
2017-10-08T05:56:46.043Z,13.07
2017-10-08T05:59:13.692Z,13.06
2017-10-08T06:01:41.298Z,13.08
2017-10-08T06:04:08.953Z,13.09
2017-10-08T06:06:36.562Z,13.10
2017-10-08T06:09:04.239Z,13.11
2017-10-08T06:11:31.912Z,13.12
2017-10-08T06:13:59.539Z,13.16
2017-10-08T06:16:27.141Z,13.14
2017-10-08T06:18:54.918Z,13.15
2017-10-08T06:21:22.555Z,13.16
2017-10-08T06:23:50.303Z,13.18
2017-10-08T06:26:17.914Z,13.18
2017-10-08T06:28:45.528Z,13.21
2017-10-08T06:31:13.158Z,13.23
2017-10-08T06:33:40.830Z,13.26
2017-10-08T06:36:08.469Z,13.27
2017-10-08T06:38:36.090Z,13.30
2017-10-08T06:41:03.766Z,13.31
2017-10-08T06:43:31.499Z,13.33
2017-10-08T06:45:59.152Z,13.39
2017-10-08T06:48:26.751Z,13.44
2017-10-08T06:50:54.499Z,13.52
2017-10-08T06:53:22.118Z,13.51
2017-10-08T06:55:49.812Z,13.46
2017-10-08T06:58:17.493Z,13.42
2017-10-08T07:00:45.150Z,13.42
2017-10-08T07:03:12.815Z,13.42
2017-10-08T07:05:40.467Z,13.41
2017-10-08T07:08:08.116Z,13.42
2017-10-08T07:10:35.779Z,13.43
2017-10-08T07:13:03.399Z,13.43
2017-10-08T07:15:31.034Z,13.48
2017-10-08T07:17:58.714Z,13.51
2017-10-08T07:20:26.358Z,13.51
2017-10-08T07:22:53.970Z,13.51
2017-10-08T07:25:21.613Z,13.52
2017-10-08T07:27:49.215Z,13.51
2017-10-08T07:30:16.865Z,13.50
2017-10-08T07:32:44.513Z,13.52
2017-10-08T07:35:12.141Z,13.53
2017-10-08T07:37:39.761Z,13.55
2017-10-08T07:40:07.393Z,13.60
2017-10-08T07:42:35.062Z,13.62
2017-10-08T07:45:02.703Z,13.65
2017-10-08T07:47:30.310Z,13.67
2017-10-08T07:49:57.999Z,13.59
2017-10-08T07:52:25.659Z,13.64
2017-10-08T07:54:53.295Z,13.57
2017-10-08T07:57:20.982Z,13.51
2017-10-08T07:59:48.627Z,13.46
2017-10-08T08:02:16.276Z,13.39
2017-10-08T08:04:43.907Z,13.34
2017-10-08T08:07:11.524Z,13.33
2017-10-08T08:09:39.143Z,13.33
2017-10-08T08:12:06.759Z,13.33
2017-10-08T08:14:34.378Z,13.33
2017-10-08T08:17:02.015Z,13.38
2017-10-08T08:19:29.666Z,13.46
2017-10-08T08:21:57.315Z,13.63
2017-10-08T08:24:24.957Z,13.77
2017-10-08T08:26:52.560Z,13.93
2017-10-08T08:29:20.157Z,13.98
2017-10-08T08:31:47.802Z,13.95
2017-10-08T08:34:15.431Z,13.94
2017-10-08T08:36:43.063Z,13.99
2017-10-08T08:39:10.676Z,14.00
2017-10-08T08:41:38.302Z,14.02
2017-10-08T08:44:05.936Z,14.01
2017-10-08T08:46:33.576Z,13.95
2017-10-08T08:49:01.179Z,13.92
2017-10-08T08:51:28.842Z,13.91
2017-10-08T08:53:56.451Z,13.97
2017-10-08T08:56:24.079Z,14.06
2017-10-08T08:58:51.695Z,14.07
2017-10-08T09:01:19.312Z,14.13
2017-10-08T09:03:46.993Z,14.19
2017-10-08T09:06:14.651Z,14.38
2017-10-08T09:08:42.290Z,14.46
2017-10-08T09:11:09.873Z,14.52
2017-10-08T09:13:37.511Z,14.59
2017-10-08T09:16:05.106Z,14.67
2017-10-08T09:18:32.743Z,14.62
2017-10-08T09:21:00.337Z,14.64
2017-10-08T09:23:27.986Z,14.60
2017-10-08T09:25:55.631Z,14.56
2017-10-08T09:28:23.260Z,14.57
2017-10-08T09:30:50.883Z,14.63
2017-10-08T09:33:18.578Z,14.71
2017-10-08T09:35:46.182Z,14.71
2017-10-08T09:38:13.921Z,14.82
2017-10-08T09:40:41.579Z,14.88
2017-10-08T09:43:09.183Z,14.83
2017-10-08T09:45:36.838Z,14.80
2017-10-08T09:48:04.513Z,14.81
2017-10-08T09:50:32.131Z,14.84
2017-10-08T09:52:59.747Z,14.86
2017-10-08T09:55:27.370Z,14.85
2017-10-08T09:57:55.035Z,14.90
2017-10-08T10:00:22.664Z,14.93
2017-10-08T10:02:50.274Z,14.91
2017-10-08T10:05:17.895Z,14.82
2017-10-08T10:07:45.629Z,14.81
2017-10-08T10:10:13.255Z,14.85
2017-10-08T10:12:40.848Z,15.14
2017-10-08T10:15:08.494Z,15.47
2017-10-08T10:17:36.202Z,15.90
2017-10-08T10:20:03.834Z,16.37
2017-10-08T10:22:31.466Z,16.45
2017-10-08T10:24:59.117Z,16.34
2017-10-08T10:27:26.706Z,16.08
2017-10-08T10:29:59.906Z,15.91
2017-10-08T10:32:27.552Z,15.76
2017-10-08T10:34:55.194Z,15.64
2017-10-08T10:37:22.785Z,15.55
2017-10-08T10:39:50.414Z,15.48
2017-10-08T10:42:18.010Z,15.44
2017-10-08T10:44:45.639Z,15.39
2017-10-08T10:47:14.168Z,15.40
2017-10-08T10:49:41.800Z,15.40
2017-10-08T10:52:09.388Z,15.55
2017-10-08T10:54:37.035Z,15.64
2017-10-08T10:57:04.662Z,15.67
2017-10-08T10:59:32.312Z,15.68
2017-10-08T11:01:59.922Z,15.83
2017-10-08T11:04:27.553Z,15.86
2017-10-08T11:06:55.155Z,15.77
2017-10-08T11:09:22.864Z,15.72
2017-10-08T11:11:51.011Z,15.68
2017-10-08T11:14:18.691Z,15.65
2017-10-08T11:16:46.371Z,15.74
2017-10-08T11:19:14.727Z,15.68
2017-10-08T11:21:42.538Z,15.68
2017-10-08T11:24:10.160Z,15.60
2017-10-08T11:26:37.894Z,15.54
2017-10-08T11:29:05.514Z,15.38
2017-10-08T11:31:33.173Z,15.31
2017-10-08T11:34:00.808Z,15.32
2017-10-08T11:36:28.437Z,15.37
2017-10-08T11:38:56.101Z,15.47
2017-10-08T11:41:23.718Z,15.58
2017-10-08T11:43:52.084Z,15.69
2017-10-08T11:46:20.050Z,15.75
2017-10-08T11:48:49.348Z,15.92
2017-10-08T11:51:17.727Z,16.07
2017-10-08T11:53:45.848Z,16.12
2017-10-08T11:56:13.971Z,16.08
2017-10-08T11:58:41.897Z,16.03
2017-10-08T12:01:15.336Z,15.88
2017-10-08T12:03:43.196Z,15.80
2017-10-08T12:06:14.752Z,15.71
2017-10-08T12:08:43.536Z,15.68
2017-10-08T12:13:44.443Z,15.70
2017-10-08T12:16:12.156Z,15.69
2017-10-08T12:18:40.644Z,15.69
2017-10-08T12:21:08.440Z,15.75
2017-10-08T12:23:36.370Z,15.85
2017-10-08T12:26:08.849Z,15.93
2017-10-08T12:28:36.716Z,15.92
2017-10-08T12:31:04.718Z,15.91
2017-10-08T12:33:39.273Z,15.90
2017-10-08T12:39:23.060Z,15.79
2017-10-08T12:41:50.824Z,15.68
2017-10-08T12:44:18.565Z,15.55
2017-10-08T12:46:46.185Z,15.21
2017-10-08T12:49:13.833Z,14.85
2017-10-08T12:51:41.458Z,14.49
2017-10-08T12:54:09.112Z,14.38
2017-10-08T12:56:36.731Z,14.41
2017-10-08T12:59:04.370Z,14.40
2017-10-08T13:01:32.028Z,14.37
2017-10-08T13:03:59.654Z,14.30
2017-10-08T13:06:27.284Z,14.28
2017-10-08T13:08:54.950Z,14.31
2017-10-08T13:13:56.540Z,14.34
2017-10-08T13:16:24.146Z,14.30
2017-10-08T13:18:51.831Z,14.31
2017-10-08T13:21:19.460Z,14.27
2017-10-08T13:23:47.071Z,14.24
2017-10-08T13:26:14.708Z,14.23
2017-10-08T13:28:42.301Z,14.24
2017-10-08T13:31:09.932Z,14.21
2017-10-08T13:33:37.528Z,14.23
2017-10-08T13:36:05.151Z,14.21
2017-10-08T13:38:32.766Z,14.23
2017-10-08T13:41:00.415Z,14.22
2017-10-08T13:43:28.014Z,14.18
2017-10-08T13:45:55.683Z,14.22
2017-10-08T13:48:23.287Z,14.22
2017-10-08T13:50:50.918Z,14.25
2017-10-08T13:53:18.548Z,14.30
2017-10-08T13:55:46.172Z,14.33
2017-10-08T13:58:13.783Z,14.37
2017-10-08T14:00:41.570Z,14.47
2017-10-08T14:03:09.171Z,14.47
2017-10-08T14:05:36.797Z,14.49
2017-10-08T14:08:04.479Z,14.57
2017-10-08T14:10:32.158Z,14.62
2017-10-08T14:12:59.760Z,14.70
2017-10-08T14:15:27.399Z,14.79
2017-10-08T14:17:55.022Z,14.95
2017-10-08T14:20:22.670Z,15.00
2017-10-08T14:22:50.286Z,15.02
2017-10-08T14:25:17.929Z,15.02
2017-10-08T14:27:45.539Z,15.01
2017-10-08T14:30:13.285Z,15.00
2017-10-08T14:32:40.903Z,14.98
2017-10-08T14:35:08.532Z,14.94
2017-10-08T14:37:36.118Z,14.99
2017-10-08T14:40:03.783Z,14.96
2017-10-08T14:42:31.386Z,14.91
2017-10-08T14:44:59.028Z,14.86
2017-10-08T14:47:26.627Z,14.86
2017-10-08T14:49:54.250Z,14.88
2017-10-08T14:52:21.866Z,14.82
2017-10-08T14:54:49.490Z,14.78
2017-10-08T14:57:17.082Z,14.74
2017-10-08T14:59:44.719Z,14.76
2017-10-08T15:02:12.331Z,14.81
2017-10-08T15:04:39.974Z,14.85
2017-10-08T15:07:07.588Z,14.86
2017-10-08T15:09:35.243Z,14.85
2017-10-08T15:12:02.848Z,14.82
2017-10-08T15:14:30.552Z,14.85
2017-10-08T15:16:58.174Z,14.84
2017-10-08T15:19:25.818Z,14.85
2017-10-08T15:21:53.415Z,14.85
2017-10-08T15:24:21.227Z,14.83
2017-10-08T15:26:48.817Z,14.77
2017-10-08T15:29:16.463Z,14.80
2017-10-08T15:31:44.346Z,14.76
2017-10-08T15:34:12.145Z,14.73
2017-10-08T15:36:39.900Z,14.76
2017-10-08T15:39:07.506Z,14.71
2017-10-08T15:41:35.141Z,14.69
2017-10-08T15:44:02.757Z,14.62
2017-10-08T15:46:30.365Z,14.62
2017-10-08T15:48:57.973Z,14.60
2017-10-08T15:51:25.661Z,14.60
2017-10-08T15:53:53.315Z,14.59
2017-10-08T15:56:20.939Z,14.62
2017-10-08T15:58:48.529Z,14.64
2017-10-08T16:01:16.165Z,14.66
2017-10-08T16:03:43.754Z,14.63
2017-10-08T16:06:11.403Z,14.61
2017-10-08T16:08:39.034Z,14.65
2017-10-08T16:11:06.698Z,14.69
2017-10-08T16:13:34.300Z,14.69
2017-10-08T16:16:01.922Z,14.68
2017-10-08T16:18:29.598Z,14.71
2017-10-08T16:20:57.288Z,14.69
2017-10-08T16:23:24.915Z,14.67
2017-10-08T16:25:52.511Z,14.66
2017-10-08T16:28:20.199Z,14.70
2017-10-08T16:30:47.886Z,14.70
2017-10-08T16:33:15.571Z,14.73
2017-10-08T16:35:43.194Z,14.71
2017-10-08T16:38:10.854Z,14.68
2017-10-08T16:40:38.497Z,14.68
2017-10-08T16:43:06.168Z,14.67
2017-10-08T16:45:33.772Z,14.66
2017-10-08T16:48:01.416Z,14.60
2017-10-08T16:50:29.022Z,14.54
2017-10-08T16:52:56.666Z,14.50
2017-10-08T16:55:24.283Z,14.47
2017-10-08T16:57:51.931Z,14.42
2017-10-08T17:00:19.548Z,14.42
2017-10-08T17:02:47.361Z,14.40
2017-10-08T17:05:15.098Z,14.37
2017-10-08T17:07:42.775Z,14.39
2017-10-08T17:10:10.423Z,14.35
2017-10-08T17:12:38.069Z,14.32
2017-10-08T17:15:05.678Z,14.30
2017-10-08T17:17:33.321Z,14.25
2017-10-08T17:20:00.923Z,14.22
2017-10-08T17:22:28.636Z,14.24
2017-10-08T17:24:56.273Z,14.21
2017-10-08T17:27:23.951Z,14.22
2017-10-08T17:29:51.670Z,14.21
2017-10-08T17:32:19.302Z,14.20
2017-10-08T17:34:46.924Z,14.20
2017-10-08T17:37:14.573Z,14.22
2017-10-08T17:39:42.360Z,14.21
2017-10-08T17:42:10.002Z,14.18
2017-10-08T17:44:37.583Z,14.15
2017-10-08T17:47:05.379Z,14.13
2017-10-08T17:49:32.996Z,14.10
2017-10-08T17:52:00.650Z,14.06
2017-10-08T17:54:28.255Z,14.04
2017-10-08T17:56:55.879Z,13.99
2017-10-08T17:59:23.491Z,13.93
2017-10-08T18:01:51.300Z,13.89
2017-10-08T18:04:19.010Z,13.84
2017-10-08T18:06:46.656Z,13.80
2017-10-08T18:09:14.249Z,13.80
2017-10-08T18:11:42.036Z,13.75
2017-10-08T18:14:09.642Z,13.75
2017-10-08T18:16:37.339Z,13.74
2017-10-08T18:19:04.931Z,13.68
2017-10-08T18:21:32.601Z,13.68
2017-10-08T18:24:00.219Z,13.68
2017-10-08T18:26:27.854Z,13.67
2017-10-08T18:28:55.470Z,13.65
2017-10-08T18:31:23.120Z,13.63
2017-10-08T18:33:50.719Z,13.65
2017-10-08T18:36:18.387Z,13.65
2017-10-08T18:38:45.970Z,13.67
2017-10-08T18:41:13.624Z,13.67
2017-10-08T18:43:41.235Z,13.69
2017-10-08T18:46:08.862Z,13.67
2017-10-08T18:48:36.578Z,13.70
2017-10-08T18:51:04.179Z,13.76
2017-10-08T18:53:31.843Z,13.73
2017-10-08T18:55:59.470Z,13.73
2017-10-08T18:58:27.192Z,14.08
2017-10-08T19:00:54.799Z,14.28
2017-10-08T19:03:22.496Z,14.27
2017-10-08T19:05:50.114Z,14.13
2017-10-08T19:08:17.797Z,14.02
2017-10-08T19:10:45.432Z,13.95
2017-10-08T19:13:13.084Z,13.90
2017-10-08T19:15:40.742Z,13.84
2017-10-08T19:18:08.409Z,13.83
2017-10-08T19:20:36.034Z,13.86
2017-10-08T19:23:03.720Z,13.86
2017-10-08T19:25:31.463Z,13.87
2017-10-08T19:27:59.307Z,13.88
2017-10-08T19:30:26.938Z,13.92
2017-10-08T19:32:54.580Z,13.94
2017-10-08T19:35:22.325Z,13.97
2017-10-08T19:37:49.990Z,13.99
2017-10-08T19:40:17.602Z,14.01
2017-10-08T19:42:45.259Z,14.05
2017-10-08T19:45:12.923Z,14.07
2017-10-08T19:47:40.591Z,14.09
2017-10-08T19:50:08.210Z,14.07
2017-10-08T19:52:35.820Z,14.09
2017-10-08T19:55:03.470Z,14.14
2017-10-08T19:57:31.087Z,14.15
2017-10-08T19:59:58.716Z,14.13
2017-10-08T20:02:26.320Z,14.10
2017-10-08T20:04:53.957Z,14.08
2017-10-08T20:07:21.597Z,14.09
2017-10-08T20:09:49.268Z,14.04
2017-10-08T20:12:16.898Z,14.03
2017-10-08T20:14:44.530Z,14.00
2017-10-08T20:17:12.167Z,13.92
2017-10-08T20:19:39.790Z,13.93
2017-10-08T20:22:07.419Z,13.94
2017-10-08T20:24:35.146Z,13.91
2017-10-08T20:27:02.798Z,13.88
2017-10-08T20:29:30.590Z,13.85
2017-10-08T20:31:58.321Z,13.76
2017-10-08T20:34:27.650Z,13.59
2017-10-08T20:36:55.399Z,13.45
2017-10-08T20:39:23.162Z,13.39
2017-10-08T20:41:50.767Z,13.28
2017-10-08T20:44:18.479Z,13.18
2017-10-08T20:46:46.111Z,13.11
2017-10-08T20:49:14.028Z,13.04
2017-10-08T20:51:41.698Z,12.96
2017-10-08T20:54:09.387Z,12.86
2017-10-08T20:56:38.250Z,12.79
2017-10-08T20:59:05.949Z,12.69
2017-10-08T21:01:33.630Z,12.64
2017-10-08T21:04:01.238Z,12.61
2017-10-08T21:06:28.922Z,12.70
2017-10-08T21:08:56.527Z,12.68
2017-10-08T21:11:24.159Z,12.63
2017-10-08T21:13:51.757Z,12.43
2017-10-08T21:16:19.426Z,12.35
2017-10-08T21:18:47.022Z,12.18
2017-10-08T21:21:14.682Z,12.04
2017-10-08T21:23:42.372Z,12.06
2017-10-08T21:26:10.019Z,12.17
2017-10-08T21:28:37.614Z,12.22
2017-10-08T21:31:05.242Z,12.19
2017-10-08T21:33:32.847Z,12.12
2017-10-08T21:36:00.477Z,12.14
2017-10-08T21:38:28.055Z,12.20
2017-10-08T21:40:55.689Z,12.28
2017-10-08T21:43:23.282Z,12.26
2017-10-08T21:45:50.920Z,12.27
2017-10-08T21:48:18.544Z,12.23
2017-10-08T21:50:46.187Z,12.18
2017-10-08T21:53:13.768Z,12.11
2017-10-08T21:55:41.414Z,12.04
2017-10-08T21:58:09.049Z,12.06
2017-10-08T22:00:36.888Z,12.03
2017-10-08T22:03:04.526Z,12.10
2017-10-08T22:05:32.216Z,12.18
2017-10-08T22:07:59.838Z,12.12
2017-10-08T22:10:27.485Z,12.10
2017-10-08T22:12:55.102Z,12.10
2017-10-08T22:15:22.787Z,12.09
2017-10-08T22:17:50.414Z,12.08
2017-10-08T22:20:18.120Z,12.15
2017-10-08T22:22:45.777Z,12.21
2017-10-08T22:25:13.385Z,12.21
2017-10-08T22:27:41.161Z,12.26
2017-10-08T22:30:08.812Z,12.26
2017-10-08T22:32:36.469Z,12.27
2017-10-08T22:35:04.107Z,12.28
2017-10-08T22:37:31.703Z,12.35
2017-10-08T22:39:59.299Z,12.35
2017-10-08T22:42:26.947Z,12.41
2017-10-08T22:44:54.588Z,12.43
2017-10-08T22:47:22.231Z,12.34
2017-10-08T22:49:49.878Z,12.31
2017-10-08T22:52:17.486Z,12.34
2017-10-08T22:54:45.134Z,12.37
2017-10-08T22:57:12.751Z,12.28
2017-10-08T22:59:40.450Z,12.23
2017-10-08T23:02:08.082Z,12.16
2017-10-08T23:04:35.694Z,12.16
2017-10-08T23:07:03.314Z,12.15
2017-10-08T23:09:30.976Z,12.20
2017-10-08T23:11:58.576Z,12.21
2017-10-08T23:14:26.169Z,12.20
2017-10-08T23:16:53.795Z,12.25
2017-10-08T23:19:21.399Z,12.28
2017-10-08T23:21:49.055Z,12.30
2017-10-08T23:24:16.677Z,12.21
2017-10-08T23:26:44.342Z,12.13
2017-10-08T23:29:11.955Z,12.12
2017-10-08T23:31:39.809Z,12.15
2017-10-08T23:34:07.425Z,12.17
2017-10-08T23:36:35.064Z,12.07
2017-10-08T23:39:02.678Z,11.95
2017-10-08T23:41:30.291Z,11.91
2017-10-08T23:43:57.878Z,11.83
2017-10-08T23:46:25.546Z,11.87
2017-10-08T23:48:53.138Z,11.98
2017-10-08T23:51:20.766Z,12.06
2017-10-08T23:53:48.383Z,12.01
2017-10-08T23:56:16.019Z,11.96
2017-10-08T23:58:43.611Z,12.03
